LFPM 172300Z AUTO VRB01KT CAVOK 17/16 Q1013

Les avions qui composent notre flotte

Avion Robin DR400-120

Avion école

F-GAHP
   * tarif promotionnel appliqué pendant la formation des élèves non brevetés


F-GAHP Planche